createdAt,value
2022-11-05T00:01:11.259Z,55.00
2022-11-05T00:03:41.666Z,54.75
2022-11-05T00:06:11.987Z,50.75
2022-11-05T00:08:42.691Z,53.25
2022-11-05T00:11:17.956Z,53.25
2022-11-05T00:13:45.426Z,51.50
2022-11-05T00:16:16.166Z,50.00
2022-11-05T00:18:46.433Z,50.25
2022-11-05T00:21:17.384Z,46.00
2022-11-05T00:23:48.259Z,47.25
2022-11-05T00:26:18.591Z,51.00
2022-11-05T00:28:48.817Z,45.75
2022-11-05T00:31:19.387Z,49.50
2022-11-05T00:33:50.033Z,49.00
2022-11-05T00:36:20.313Z,46.50
2022-11-05T00:38:50.508Z,50.75
2022-11-05T00:41:21.035Z,45.50
2022-11-05T00:43:51.839Z,44.50
2022-11-05T00:46:23.478Z,48.25
2022-11-05T00:48:54.342Z,48.25
2022-11-05T00:51:24.481Z,45.00
2022-11-05T00:53:55.124Z,48.50
2022-11-05T00:56:25.658Z,51.75
2022-11-05T00:58:56.678Z,44.25
2022-11-05T01:01:27.188Z,44.00
2022-11-05T01:03:57.610Z,45.25
2022-11-05T01:06:28.140Z,49.25
2022-11-05T01:08:58.401Z,47.00
2022-11-05T01:11:28.749Z,52.25
2022-11-05T01:14:00.429Z,46.75
2022-11-05T01:16:30.793Z,51.00
2022-11-05T01:19:02.444Z,50.50
2022-11-05T01:21:32.960Z,47.75
2022-11-05T01:24:04.341Z,49.50
2022-11-05T01:26:34.836Z,44.25
2022-11-05T01:29:05.259Z,46.75
2022-11-05T01:31:35.767Z,43.00
2022-11-05T01:34:06.129Z,49.25
2022-11-05T01:36:36.856Z,48.00
2022-11-05T01:39:07.567Z,49.50
2022-11-05T01:41:38.398Z,48.00
2022-11-05T01:44:28.402Z,49.00
2022-11-05T01:46:59.000Z,48.50
2022-11-05T01:49:32.164Z,46.50
2022-11-05T01:52:05.125Z,52.00
2022-11-05T01:54:36.426Z,53.75
2022-11-05T01:57:09.825Z,53.00
2022-11-05T01:59:43.137Z,52.50
2022-11-05T02:02:14.365Z,52.00
2022-11-05T02:04:50.609Z,50.00
2022-11-05T02:07:23.133Z,47.00
2022-11-05T02:10:16.601Z,50.75
2022-11-05T02:12:48.985Z,51.25
2022-11-05T02:15:39.855Z,49.00
2022-11-05T02:18:13.208Z,50.00
2022-11-05T02:21:08.177Z,53.00
2022-11-05T02:23:44.363Z,52.50
2022-11-05T02:26:34.238Z,51.00
2022-11-05T02:29:43.109Z,48.75
2022-11-05T02:32:28.159Z,50.50
2022-11-05T02:35:04.051Z,47.50
2022-11-05T02:37:43.604Z,52.50
2022-11-05T02:40:28.472Z,52.00
2022-11-05T02:43:25.303Z,51.00
2022-11-05T02:46:13.635Z,56.00
2022-11-05T02:48:49.837Z,52.50
2022-11-05T02:51:29.103Z,50.25
2022-11-05T02:57:00.359Z,43.75
2022-11-05T02:59:31.026Z,50.25
2022-11-05T03:02:05.728Z,52.75
2022-11-05T03:04:36.689Z,52.00
2022-11-05T03:07:16.335Z,46.00
2022-11-05T03:13:24.760Z,47.25
2022-11-05T03:16:14.593Z,48.75
2022-11-05T03:18:56.591Z,46.00
2022-11-05T03:21:32.653Z,36.50
2022-11-05T03:24:06.245Z,47.50
2022-11-05T03:26:39.541Z,47.25
2022-11-05T03:29:13.710Z,50.25
2022-11-05T03:31:47.521Z,44.50
2022-11-05T03:34:20.905Z,47.00
2022-11-05T03:37:12.014Z,47.75
2022-11-05T03:39:46.210Z,45.50
2022-11-05T03:42:19.544Z,49.50
2022-11-05T03:44:52.938Z,48.25
2022-11-05T03:47:29.338Z,46.75
2022-11-05T03:50:11.527Z,46.25
2022-11-05T03:52:47.611Z,46.25
2022-11-05T03:55:18.784Z,48.50
2022-11-05T03:57:52.250Z,49.25
2022-11-05T04:00:23.414Z,52.50
2022-11-05T04:02:53.733Z,49.00
2022-11-05T04:05:24.124Z,47.50
2022-11-05T04:07:54.536Z,52.50
2022-11-05T04:10:24.817Z,52.25
2022-11-05T04:12:54.984Z,53.50
2022-11-05T04:15:25.370Z,56.75
2022-11-05T04:17:55.703Z,56.25
2022-11-05T04:20:29.272Z,55.00
2022-11-05T04:23:02.490Z,62.25
2022-11-05T04:25:32.807Z,63.50
2022-11-05T04:28:03.546Z,68.25
2022-11-05T04:30:33.695Z,62.75
2022-11-05T04:33:12.899Z,60.25
2022-11-05T04:35:46.144Z,56.00
2022-11-05T04:38:19.458Z,58.00
2022-11-05T04:40:50.317Z,57.50
2022-11-05T04:43:21.682Z,60.00
2022-11-05T04:45:52.477Z,62.50
2022-11-05T04:48:22.828Z,59.75
2022-11-05T04:50:54.222Z,62.75
2022-11-05T04:53:24.580Z,61.25
2022-11-05T04:55:54.872Z,56.75
2022-11-05T04:58:25.176Z,57.50
2022-11-05T05:00:55.584Z,61.50
2022-11-05T05:03:26.194Z,61.75
2022-11-05T05:06:03.994Z,60.75
2022-11-05T05:08:33.530Z,62.25
2022-11-05T05:11:06.628Z,53.25
2022-11-05T05:13:37.474Z,55.50
2022-11-05T05:16:09.981Z,53.00
2022-11-05T05:18:45.900Z,58.50
2022-11-05T05:21:12.161Z,52.25
2022-11-05T05:23:43.688Z,43.75
2022-11-05T05:26:14.612Z,60.50
2022-11-05T05:28:46.506Z,49.00
2022-11-05T05:31:16.778Z,49.75
2022-11-05T05:33:47.160Z,45.25
2022-11-05T05:36:17.473Z,44.00
2022-11-05T05:38:48.804Z,43.75
2022-11-05T05:41:19.175Z,46.50
2022-11-05T05:43:49.665Z,41.75
2022-11-05T05:46:19.976Z,24.00
2022-11-05T05:48:52.156Z,41.00
2022-11-05T05:51:22.542Z,45.00
2022-11-05T05:53:53.790Z,45.25
2022-11-05T05:56:24.034Z,37.75
2022-11-05T05:58:54.587Z,28.75
2022-11-05T06:01:24.987Z,37.00
2022-11-05T06:03:56.679Z,31.25
2022-11-05T06:06:28.426Z,42.00
2022-11-05T06:08:59.095Z,38.75
2022-11-05T06:11:29.615Z,40.75
2022-11-05T06:13:59.827Z,40.50
2022-11-05T06:16:32.395Z,43.00
2022-11-05T06:19:03.326Z,40.00
2022-11-05T06:21:33.731Z,39.50
2022-11-05T06:24:05.317Z,39.75
2022-11-05T06:26:35.944Z,40.25
2022-11-05T06:29:06.305Z,36.00
2022-11-05T06:31:37.704Z,38.75
2022-11-05T06:34:09.014Z,39.75
2022-11-05T06:36:40.200Z,34.50
2022-11-05T06:39:12.297Z,37.50
2022-11-05T06:42:17.840Z,35.75
2022-11-05T06:44:35.828Z,37.25
2022-11-05T06:47:06.186Z,32.75
2022-11-05T06:49:37.081Z,34.50
2022-11-05T06:52:07.340Z,33.50
2022-11-05T06:54:38.294Z,31.50
2022-11-05T06:57:11.046Z,27.50
2022-11-05T06:59:41.868Z,39.00
2022-11-05T07:02:13.128Z,37.25
2022-11-05T07:04:44.192Z,24.75
2022-11-05T07:07:15.665Z,35.00
2022-11-05T07:09:46.467Z,31.50
2022-11-05T07:12:16.919Z,29.75
2022-11-05T07:14:47.276Z,36.00
2022-11-05T07:17:20.447Z,38.00
2022-11-05T07:19:59.510Z,30.75
2022-11-05T07:22:37.755Z,36.50
2022-11-05T07:25:08.927Z,39.50
2022-11-05T07:27:40.583Z,35.00
2022-11-05T07:30:11.373Z,35.75
2022-11-05T07:32:42.717Z,34.75
2022-11-05T07:35:15.847Z,38.00
2022-11-05T07:37:50.299Z,37.00
2022-11-05T07:40:22.237Z,38.50
2022-11-05T07:42:55.377Z,35.75
2022-11-05T07:45:28.859Z,32.50
2022-11-05T07:51:45.748Z,33.00
2022-11-05T07:57:32.818Z,27.00
2022-11-05T08:00:01.827Z,30.80
2022-11-05T08:02:34.405Z,28.40
2022-11-05T08:05:06.643Z,31.80
2022-11-05T08:07:37.763Z,32.40
2022-11-05T08:10:08.763Z,30.60
2022-11-05T08:12:41.587Z,29.80
2022-11-05T08:15:12.726Z,31.20
2022-11-05T08:17:43.836Z,30.00
2022-11-05T08:20:15.761Z,28.80
2022-11-05T08:22:47.199Z,27.60
2022-11-05T08:25:17.694Z,26.60
2022-11-05T08:28:09.781Z,25.80
2022-11-05T08:30:40.282Z,27.40
2022-11-05T08:33:14.110Z,27.40
2022-11-05T08:35:44.957Z,28.20
2022-11-05T08:38:34.331Z,26.80
2022-11-05T08:41:00.284Z,30.25
2022-11-05T08:43:30.712Z,26.75
2022-11-05T08:46:02.542Z,28.25
2022-11-05T08:48:33.426Z,27.75
2022-11-05T08:51:03.798Z,28.50
2022-11-05T08:53:35.375Z,29.50
2022-11-05T08:56:05.943Z,27.50
2022-11-05T08:58:36.892Z,29.50
2022-11-05T09:01:12.369Z,21.00
2022-11-05T09:03:46.590Z,20.00
2022-11-05T09:06:20.680Z,21.25
2022-11-05T09:08:51.790Z,21.75
2022-11-05T09:11:56.959Z,24.75
2022-11-05T09:14:02.503Z,25.25
2022-11-05T09:16:36.344Z,18.00
2022-11-05T09:19:06.923Z,19.75
2022-11-05T09:21:39.035Z,21.00
2022-11-05T09:24:11.235Z,24.50
2022-11-05T09:26:41.618Z,24.25
2022-11-05T09:29:14.519Z,22.25
2022-11-05T09:31:44.446Z,26.75
2022-11-05T09:34:16.079Z,28.25
2022-11-05T09:36:51.254Z,24.50
2022-11-05T09:39:21.396Z,28.00
2022-11-05T09:45:05.131Z,26.75
2022-11-05T09:47:41.722Z,21.25
2022-11-05T09:50:15.398Z,13.25
2022-11-05T09:52:46.631Z,23.00
2022-11-05T09:55:33.805Z,22.00
2022-11-05T09:58:14.329Z,23.50
2022-11-05T10:00:47.391Z,18.00
2022-11-05T10:03:21.101Z,19.00
2022-11-05T10:05:55.388Z,19.50
2022-11-05T10:08:30.281Z,19.75
2022-11-05T10:11:07.900Z,19.00
2022-11-05T10:13:48.966Z,16.50
2022-11-05T10:16:43.324Z,18.00
2022-11-05T10:19:17.495Z,12.75
2022-11-05T10:22:06.111Z,14.75
2022-11-05T10:24:22.129Z,18.50
2022-11-05T10:27:02.437Z,18.25
2022-11-05T10:29:37.317Z,19.75
2022-11-05T10:32:09.885Z,18.25
2022-11-05T10:34:41.791Z,12.50
2022-11-05T10:37:12.284Z,12.00
2022-11-05T10:39:48.816Z,16.00
2022-11-05T10:42:57.685Z,14.00
2022-11-05T10:45:57.304Z,17.00
2022-11-05T10:48:44.084Z,16.25
2022-11-05T10:51:17.759Z,16.00
2022-11-05T10:54:01.618Z,17.50
2022-11-05T10:56:37.481Z,16.75
2022-11-05T10:59:23.620Z,19.25
2022-11-05T11:02:16.290Z,16.60
2022-11-05T11:04:52.162Z,21.00
2022-11-05T11:07:28.826Z,11.80
2022-11-05T11:09:59.348Z,14.00
2022-11-05T11:12:35.682Z,15.20
2022-11-05T11:15:25.368Z,13.00
2022-11-05T11:17:56.821Z,15.60
2022-11-05T11:20:32.565Z,8.40
2022-11-05T11:23:35.537Z,16.40
2022-11-05T11:26:07.576Z,16.40
2022-11-05T11:28:51.627Z,20.60
2022-11-05T11:31:25.775Z,17.00
2022-11-05T11:34:01.523Z,15.00
2022-11-05T11:36:37.881Z,12.20
2022-11-05T11:39:09.716Z,13.40
2022-11-05T11:42:03.431Z,18.75
2022-11-05T11:44:37.246Z,17.40
2022-11-05T11:47:19.370Z,20.25
2022-11-05T11:49:55.060Z,17.00
2022-11-05T11:52:34.926Z,15.75
2022-11-05T11:55:31.364Z,19.00
2022-11-05T11:58:11.301Z,15.50
2022-11-05T12:00:45.882Z,18.25
2022-11-05T12:03:27.452Z,14.75
2022-11-05T12:06:09.159Z,16.25
2022-11-05T12:09:17.152Z,17.75
2022-11-05T12:11:53.564Z,17.00
2022-11-05T12:14:32.834Z,18.00
2022-11-05T12:20:41.410Z,16.75
2022-11-05T12:23:26.385Z,13.75
2022-11-05T12:26:19.185Z,17.00
2022-11-05T12:29:17.307Z,17.50
2022-11-05T12:31:56.859Z,19.00
2022-11-05T12:34:46.909Z,12.00
2022-11-05T12:37:38.969Z,16.50
2022-11-05T12:40:38.203Z,17.75
2022-11-05T12:43:37.692Z,15.50
2022-11-05T12:46:28.653Z,15.25
2022-11-05T12:49:20.263Z,15.50
2022-11-05T12:52:17.379Z,16.75
2022-11-05T12:54:55.995Z,17.50
2022-11-05T12:57:29.444Z,14.75
2022-11-05T13:00:03.247Z,14.00
2022-11-05T13:02:58.812Z,16.75
2022-11-05T13:06:05.820Z,15.75
2022-11-05T13:08:48.102Z,18.00
2022-11-05T13:11:21.026Z,19.00
2022-11-05T13:20:17.481Z,16.50
2022-11-05T13:22:59.522Z,23.50
2022-11-05T13:25:35.152Z,21.25
2022-11-05T13:28:32.394Z,20.50
2022-11-05T13:37:43.544Z,14.50
2022-11-05T13:40:16.758Z,17.50
2022-11-05T13:42:50.506Z,13.75
2022-11-05T13:45:29.956Z,17.00
2022-11-05T13:48:19.906Z,16.00
2022-11-05T13:50:53.479Z,15.75
2022-11-05T13:53:47.393Z,20.75
2022-11-05T13:56:30.350Z,16.75
2022-11-05T13:59:35.145Z,18.50
2022-11-05T14:02:18.128Z,18.00
2022-11-05T14:05:01.244Z,21.00
2022-11-05T14:07:41.174Z,19.00
2022-11-05T14:16:30.939Z,20.00
2022-11-05T14:19:20.368Z,20.50
2022-11-05T14:22:01.424Z,19.50
2022-11-05T14:24:43.497Z,22.50
2022-11-05T14:27:23.890Z,21.25
2022-11-05T14:29:58.422Z,19.00
2022-11-05T14:35:26.481Z,21.25
2022-11-05T14:38:00.402Z,24.50
2022-11-05T14:40:42.688Z,25.00
2022-11-05T14:43:24.129Z,27.25
2022-11-05T14:46:03.708Z,22.25
2022-11-05T15:15:04.757Z,35.75
2022-11-05T15:18:13.205Z,36.00
2022-11-05T15:20:47.599Z,35.25
2022-11-05T15:23:23.524Z,34.00
2022-11-05T15:26:12.362Z,30.25
2022-11-05T15:28:48.000Z,36.25
2022-11-05T15:31:30.518Z,37.25
2022-11-05T15:34:25.647Z,34.00
2022-11-05T15:36:58.824Z,39.75
2022-11-05T15:39:32.449Z,40.00
2022-11-05T15:42:08.543Z,35.50
2022-11-05T15:44:48.842Z,37.25
2022-11-05T15:56:39.557Z,33.00
2022-11-05T15:59:46.817Z,33.25
2022-11-05T16:02:34.107Z,37.75
2022-11-05T16:05:07.846Z,34.00
2022-11-05T16:07:45.377Z,35.75
2022-11-05T16:10:22.709Z,35.25
2022-11-05T16:13:18.077Z,38.50
2022-11-05T16:15:57.647Z,37.25
2022-11-05T16:18:37.791Z,35.00
2022-11-05T16:21:20.308Z,32.75
2022-11-05T16:23:53.614Z,36.25
2022-11-05T16:29:14.581Z,34.00
2022-11-05T16:31:54.333Z,34.00
2022-11-05T16:34:42.133Z,35.25
2022-11-05T16:37:15.410Z,36.50
2022-11-05T16:39:48.666Z,33.75
2022-11-05T16:42:39.671Z,35.00
2022-11-05T16:45:12.569Z,35.00
2022-11-05T16:47:44.658Z,29.00
2022-11-05T16:50:20.572Z,32.75
2022-11-05T16:52:51.304Z,29.00
2022-11-05T16:55:28.908Z,33.00
2022-11-05T16:57:59.898Z,31.75
2022-11-05T17:00:31.656Z,29.25
2022-11-05T17:03:01.995Z,34.25
2022-11-05T17:05:32.956Z,22.25
2022-11-05T17:08:07.343Z,32.00
2022-11-05T17:10:37.486Z,35.50
2022-11-05T17:13:10.040Z,43.25
2022-11-05T17:15:45.735Z,40.50
2022-11-05T17:18:19.468Z,39.00
2022-11-05T17:20:53.231Z,38.00
2022-11-05T17:23:25.533Z,41.75
2022-11-05T17:25:58.928Z,41.25
2022-11-05T17:28:29.823Z,30.25
2022-11-05T17:31:02.602Z,36.50
2022-11-05T17:33:33.636Z,32.00
2022-11-05T17:36:14.210Z,33.00
2022-11-05T17:38:45.101Z,26.00
2022-11-05T17:41:23.281Z,28.75
2022-11-05T17:43:58.379Z,29.00
2022-11-05T17:46:30.157Z,30.25
2022-11-05T17:49:06.860Z,31.25
2022-11-05T17:51:39.875Z,24.25
2022-11-05T17:54:11.543Z,29.75
2022-11-05T17:56:44.759Z,31.00
2022-11-05T17:59:15.237Z,31.75
2022-11-05T18:01:49.266Z,35.50
2022-11-05T18:04:29.335Z,48.00
2022-11-05T18:07:00.107Z,46.25
2022-11-05T18:09:30.888Z,44.00
2022-11-05T18:12:01.750Z,43.00
2022-11-05T18:14:35.357Z,42.25
2022-11-05T18:17:08.044Z,37.50
2022-11-05T18:19:38.877Z,42.00
2022-11-05T18:22:09.609Z,41.25
2022-11-05T18:24:44.550Z,39.25
2022-11-05T18:27:15.419Z,36.25
2022-11-05T18:29:52.090Z,35.50
2022-11-05T18:32:24.156Z,31.00
2022-11-05T18:34:54.576Z,39.50
2022-11-05T18:37:26.113Z,37.00
2022-11-05T18:39:56.672Z,44.00
2022-11-05T18:42:37.796Z,39.00
2022-11-05T18:45:10.238Z,47.00
2022-11-05T18:47:40.792Z,42.50
2022-11-05T18:50:11.228Z,43.25
2022-11-05T18:52:45.100Z,42.00
2022-11-05T18:55:15.654Z,44.50
2022-11-05T18:57:48.733Z,46.75
2022-11-05T19:00:20.652Z,46.50
2022-11-05T19:02:52.065Z,40.50
2022-11-05T19:05:29.329Z,43.00
2022-11-05T19:08:22.653Z,49.50
2022-11-05T19:10:53.164Z,47.75
2022-11-05T19:13:24.473Z,46.50
2022-11-05T19:16:19.795Z,46.75
2022-11-05T19:19:10.872Z,46.25
2022-11-05T19:21:41.865Z,49.25
2022-11-05T19:24:18.344Z,48.50
2022-11-05T19:26:52.185Z,47.00
2022-11-05T19:29:23.511Z,46.50
2022-11-05T19:32:03.878Z,46.50
2022-11-05T19:34:59.525Z,44.75
2022-11-05T19:40:19.071Z,47.75
2022-11-05T19:42:51.676Z,47.00
2022-11-05T19:45:44.065Z,52.00
2022-11-05T19:48:03.997Z,48.00
2022-11-05T19:50:35.344Z,38.50
2022-11-05T19:53:06.005Z,47.00
2022-11-05T19:55:41.257Z,47.50
2022-11-05T19:58:11.979Z,42.75
2022-11-05T20:04:14.618Z,42.25
2022-11-05T20:06:45.474Z,40.75
2022-11-05T20:09:22.049Z,45.00
2022-11-05T20:12:44.269Z,49.00
2022-11-05T20:14:56.051Z,42.25
2022-11-05T20:17:26.379Z,44.75
2022-11-05T20:19:57.706Z,46.00
2022-11-05T20:22:28.217Z,47.00
2022-11-05T20:24:59.173Z,47.25
2022-11-05T20:27:32.198Z,50.50
2022-11-05T20:30:05.215Z,44.00
2022-11-05T20:49:38.548Z,17.25
2022-11-05T20:52:09.005Z,43.00
2022-11-05T20:54:39.834Z,46.50
2022-11-05T20:57:31.044Z,46.75
2022-11-05T21:00:15.248Z,39.25
2022-11-05T21:05:48.258Z,36.75
2022-11-05T21:08:18.794Z,44.00
2022-11-05T21:10:51.426Z,46.25
2022-11-05T21:13:23.422Z,48.50
2022-11-05T21:15:56.518Z,48.75
2022-11-05T21:18:35.583Z,38.75
2022-11-05T21:21:09.645Z,43.75
2022-11-05T21:23:44.010Z,41.00
2022-11-05T21:26:18.967Z,42.75
2022-11-05T21:28:49.827Z,40.00
2022-11-05T21:31:20.072Z,38.25
2022-11-05T21:33:55.290Z,39.25
2022-11-05T21:39:13.195Z,42.00
2022-11-05T21:40:16.693Z,45.25
2022-11-05T21:42:56.128Z,41.00
2022-11-05T21:48:28.256Z,43.25
2022-11-05T21:51:19.998Z,38.50
2022-11-05T21:53:51.982Z,44.50
2022-11-05T21:56:32.525Z,40.75
2022-11-05T21:59:29.668Z,43.00
2022-11-05T22:02:04.706Z,42.50
2022-11-05T22:04:47.721Z,45.75
2022-11-05T22:07:24.621Z,44.75
2022-11-05T22:10:16.136Z,48.75
2022-11-05T22:12:48.931Z,40.25
2022-11-05T22:15:20.624Z,41.50
2022-11-05T22:17:53.011Z,46.25
2022-11-05T22:20:24.207Z,34.25
2022-11-05T22:22:54.468Z,36.50
2022-11-05T22:25:25.436Z,43.25
2022-11-05T22:27:57.141Z,45.50
2022-11-05T22:30:27.392Z,38.25
2022-11-05T22:32:58.846Z,42.25
2022-11-05T22:35:33.410Z,33.50
2022-11-05T22:38:04.288Z,43.25
2022-11-05T22:40:35.804Z,37.00
2022-11-05T22:43:06.214Z,39.00
2022-11-05T22:45:37.983Z,44.00
2022-11-05T22:48:08.428Z,42.00
2022-11-05T22:50:40.128Z,40.25
2022-11-05T22:53:10.161Z,36.75
2022-11-05T22:55:40.939Z,38.00
2022-11-05T22:58:11.606Z,39.25
2022-11-05T23:00:43.388Z,28.50
2022-11-05T23:03:13.922Z,34.25
2022-11-05T23:05:44.937Z,29.50
2022-11-05T23:08:15.770Z,34.50
2022-11-05T23:10:46.347Z,38.75
2022-11-05T23:13:16.989Z,32.75
2022-11-05T23:15:47.933Z,32.50
2022-11-05T23:18:19.940Z,30.75
2022-11-05T23:20:51.928Z,39.75
2022-11-05T23:23:22.328Z,32.50
2022-11-05T23:25:59.586Z,35.75
2022-11-05T23:28:29.951Z,34.75
2022-11-05T23:31:00.831Z,29.50
2022-11-05T23:33:33.543Z,27.50
2022-11-05T23:36:04.455Z,28.50
2022-11-05T23:38:36.017Z,30.25
2022-11-05T23:41:06.641Z,34.50
2022-11-05T23:43:37.162Z,30.75
2022-11-05T23:46:08.809Z,37.00
2022-11-05T23:48:39.716Z,30.75
2022-11-05T23:51:11.563Z,36.50
2022-11-05T23:53:48.676Z,22.25
2022-11-05T23:56:19.140Z,36.75
2022-11-05T23:58:49.558Z,33.75
